RJTH(METAR)
04/29 17:00
RJTH 290800Z 24010KT 9999 FEW035 FEW050 SCTXXX 20/11 Q1007 RMK
A2974=
戻る
トップページへ戻る
IMOC Co,.Ltd.